Ohkay Owingeh, New Mexico
Current Conditions -  °F | °C
As of 2:55 AM on Tuesday 21 Oct 2014 (Local Time) from KLAM Reporting Station
Broken Clouds Broken Clouds  
Wind Chill: 46°   Ceiling: 7000
Heat Index: 49°   Visibility: 10mi
Dew Point: 43°   Wind: 7mph
Humidity: 80%   Direction: 220°SW
Pressure: 30.24"   Gusts: NA
Location:  36.054°N, 106.072°W
Report Text: KLAM 210855Z AUTO 22006KT 10SM BKN070 09/06 A3024 RMK AO2 T00930061
Loading
Personal Weather Stations






























Interactive Weather Map
Tropical Storm Tracking
New forecast layout! Learn more

10-Day Weather Forecast

Advertisements
Track Severe Weather on mobile